Time;durP1;ratioP1;P1;durP2;ratioP2;P2;SDS_P1;SDS_P2;PMS_P1;PMS_P2;Temp;Humidity;BMP_temperature;BMP_pressure;BME280_temperature;BME280_humidity;BME280_pressure;Samples;Min_cycle;Max_cycle;Signal;HPM_P1;HPM_P2
2023/12/19 00:02:21;;;;;;;5.05;2.15;;;;;;;;;;4947883;29;20040;-80
2023/12/19 00:04:47;;;;;;;3.58;1.90;;;;;;;;;;4948102;29;20043;-79
2023/12/19 00:07:14;;;;;;;2.70;1.63;;;;;;;;;;4931805;29;20051;-80
2023/12/19 00:09:43;;;;;;;3.45;1.95;;;;;;;;;;4937494;29;20040;-80
2023/12/19 00:12:12;;;;;;;2.80;1.60;;;;;;;;;;4915002;29;20047;-80
2023/12/19 00:14:38;;;;;;;2.90;1.77;;;;;;;;;;4931591;29;20426;-79
2023/12/19 00:17:10;;;;;;;16.63;7.40;;;;;;;;;;4931898;29;20046;-80
2023/12/19 00:19:36;;;;;;;16.92;8.38;;;;;;;;;;4931496;29;20042;-81
2023/12/19 00:22:03;;;;;;;17.58;9.82;;;;;;;;;;4927326;29;20043;-79
2023/12/19 00:24:29;;;;;;;16.17;9.05;;;;;;;;;;4930695;29;20039;-80
2023/12/19 00:27:03;;;;;;;19.25;10.13;;;;;;;;;;4947446;29;20050;-80
2023/12/19 00:29:30;;;;;;;17.60;9.77;;;;;;;;;;4930710;29;20049;-80
2023/12/19 00:31:57;;;;;;;22.60;9.85;;;;;;;;;;4946385;29;20040;-79
2023/12/19 00:34:23;;;;;;;19.65;10.13;;;;;;;;;;4946598;29;20046;-80
2023/12/19 00:36:50;;;;;;;18.50;10.45;;;;;;;;;;4916175;29;20050;-79
2023/12/19 00:39:43;;;;;;;21.90;11.23;;;;;;;;;;4931245;29;20481;-80
2023/12/19 00:42:12;;;;;;;22.65;10.10;;;;;;;;;;4931507;29;20042;-79
2023/12/19 00:44:42;;;;;;;21.52;10.32;;;;;;;;;;4915339;29;20042;-79
2023/12/19 00:47:09;;;;;;;21.92;11.13;;;;;;;;;;4948718;29;20287;-79
2023/12/19 00:49:36;;;;;;;19.10;9.55;;;;;;;;;;4948299;29;20039;-80
2023/12/19 00:52:03;;;;;;;18.38;9.68;;;;;;;;;;4917231;29;20319;-79
2023/12/19 00:54:29;;;;;;;18.55;8.40;;;;;;;;;;4932556;29;20039;-79
2023/12/19 00:56:55;;;;;;;15.68;6.88;;;;;;;;;;4948419;29;20032;-79
2023/12/19 00:59:31;;;;;;;8.68;5.10;;;;;;;;;;4933014;29;20035;-80
2023/12/19 01:01:57;;;;;;;5.07;2.78;;;;;;;;;;4946563;29;20120;-80
2023/12/19 01:04:23;;;;;;;4.25;2.33;;;;;;;;;;4930173;29;20039;-79
2023/12/19 01:06:52;;;;;;;3.80;1.98;;;;;;;;;;4946539;29;20049;-79
2023/12/19 01:09:18;;;;;;;2.97;1.80;;;;;;;;;;4945734;29;20059;-79
2023/12/19 01:11:52;;;;;;;2.97;1.45;;;;;;;;;;4946692;29;20049;-80
2023/12/19 01:14:19;;;;;;;1.80;1.08;;;;;;;;;;4946318;29;20032;-79
2023/12/19 01:16:48;;;;;;;3.08;1.65;;;;;;;;;;4929779;29;20485;-79
2023/12/19 01:19:15;;;;;;;2.42;1.48;;;;;;;;;;4928950;29;20050;-80
2023/12/19 01:21:41;;;;;;;2.65;1.27;;;;;;;;;;4912442;29;20044;-79
2023/12/19 01:24:09;;;;;;;1.98;1.45;;;;;;;;;;4930986;29;20039;-79
2023/12/19 01:26:36;;;;;;;1.92;1.20;;;;;;;;;;4944567;29;20047;-80
2023/12/19 01:29:02;;;;;;;2.28;1.20;;;;;;;;;;4941122;29;20047;-79
2023/12/19 01:31:28;;;;;;;2.00;1.30;;;;;;;;;;4932021;29;20046;-80
2023/12/19 01:33:55;;;;;;;1.90;1.30;;;;;;;;;;4927065;29;20062;-79
2023/12/19 01:36:22;;;;;;;2.03;1.60;;;;;;;;;;4911073;29;20039;-78
2023/12/19 01:38:54;;;;;;;2.30;1.42;;;;;;;;;;4942659;29;20035;-80
2023/12/19 01:41:22;;;;;;;2.38;1.50;;;;;;;;;;4909758;29;20040;-80
2023/12/19 01:43:49;;;;;;;1.55;1.20;;;;;;;;;;4908209;29;20046;-79
2023/12/19 01:46:18;;;;;;;3.65;1.17;;;;;;;;;;4922947;29;20532;-80
2023/12/19 01:48:45;;;;;;;2.30;1.63;;;;;;;;;;4935665;29;20031;-79
2023/12/19 01:51:15;;;;;;;1.30;1.00;;;;;;;;;;4918818;29;20047;-79
2023/12/19 01:53:45;;;;;;;3.13;1.50;;;;;;;;;;4936277;29;20032;-79
2023/12/19 01:56:15;;;;;;;1.45;1.15;;;;;;;;;;4934061;29;20077;-80
2023/12/19 01:58:43;;;;;;;4.07;1.50;;;;;;;;;;4936707;29;20592;-80
2023/12/19 02:01:12;;;;;;;2.50;1.60;;;;;;;;;;4917150;29;20044;-80
2023/12/19 02:03:40;;;;;;;2.92;1.42;;;;;;;;;;4933205;29;20043;-79
2023/12/19 02:06:07;;;;;;;2.03;1.55;;;;;;;;;;4937438;29;20036;-79
2023/12/19 02:08:34;;;;;;;2.20;1.60;;;;;;;;;;4920577;29;20056;-79
2023/12/19 02:11:00;;;;;;;2.22;1.42;;;;;;;;;;4936095;29;20044;-80
2023/12/19 02:13:26;;;;;;;2.15;1.80;;;;;;;;;;4951412;29;20049;-80
2023/12/19 02:15:55;;;;;;;2.70;1.45;;;;;;;;;;4951860;29;20046;-79
2023/12/19 02:18:22;;;;;;;2.17;1.10;;;;;;;;;;4953462;29;20047;-79
2023/12/19 02:20:48;;;;;;;2.10;1.40;;;;;;;;;;4945084;29;20032;-80
2023/12/19 02:23:15;;;;;;;2.88;1.50;;;;;;;;;;4922039;29;20040;-79
2023/12/19 02:25:42;;;;;;;2.33;1.55;;;;;;;;;;4917370;29;20047;-79
2023/12/19 02:28:08;;;;;;;1.65;1.40;;;;;;;;;;4919852;29;20035;-79
2023/12/19 02:30:35;;;;;;;2.95;1.60;;;;;;;;;;4918023;29;20055;-79
2023/12/19 02:33:08;;;;;;;4.22;2.38;;;;;;;;;;4901430;29;20051;-80
2023/12/19 02:35:34;;;;;;;5.18;3.40;;;;;;;;;;4918539;29;20044;-79
2023/12/19 02:38:03;;;;;;;9.50;4.97;;;;;;;;;;4905020;29;20039;-80
2023/12/19 02:40:30;;;;;;;11.45;5.97;;;;;;;;;;4941539;29;20046;-80
2023/12/19 02:42:56;;;;;;;12.52;6.70;;;;;;;;;;4948924;29;20514;-79
2023/12/19 02:45:23;;;;;;;13.65;7.80;;;;;;;;;;4943433;29;20549;-79
2023/12/19 02:47:51;;;;;;;11.95;7.32;;;;;;;;;;4947660;29;20387;-80
2023/12/19 02:50:18;;;;;;;13.55;7.70;;;;;;;;;;4947338;29;20379;-80
2023/12/19 02:52:47;;;;;;;11.98;6.70;;;;;;;;;;4932852;29;20043;-81
2023/12/19 02:55:15;;;;;;;8.93;5.47;;;;;;;;;;4931022;29;20682;-79
2023/12/19 02:57:43;;;;;;;5.07;3.22;;;;;;;;;;4930981;29;20448;-79
2023/12/19 03:00:10;;;;;;;4.10;2.90;;;;;;;;;;4948735;29;20027;-80
2023/12/19 03:02:36;;;;;;;6.82;3.65;;;;;;;;;;4918393;29;20039;-80
2023/12/19 03:05:04;;;;;;;5.75;2.67;;;;;;;;;;4934028;29;20039;-80
2023/12/19 03:07:30;;;;;;;3.55;2.45;;;;;;;;;;4917320;29;20414;-78
2023/12/19 03:10:05;;;;;;;3.80;2.00;;;;;;;;;;4931349;29;20047;-80
2023/12/19 03:12:32;;;;;;;3.83;1.95;;;;;;;;;;4947151;29;20047;-79
2023/12/19 03:15:02;;;;;;;3.90;2.22;;;;;;;;;;4945500;29;20046;-79
2023/12/19 03:17:28;;;;;;;3.47;2.17;;;;;;;;;;4944928;29;20050;-80
2023/12/19 03:19:55;;;;;;;3.60;2.03;;;;;;;;;;4946008;29;20055;-79
2023/12/19 03:22:21;;;;;;;2.55;1.75;;;;;;;;;;4947019;29;20052;-79
2023/12/19 03:24:49;;;;;;;2.90;2.22;;;;;;;;;;4931415;29;20035;-80
2023/12/19 03:27:15;;;;;;;4.60;2.20;;;;;;;;;;4932146;29;20039;-80
2023/12/19 03:29:42;;;;;;;3.88;2.10;;;;;;;;;;4946960;29;20338;-79
2023/12/19 03:32:11;;;;;;;2.53;1.50;;;;;;;;;;4916100;29;20054;-80
2023/12/19 03:34:38;;;;;;;3.17;1.42;;;;;;;;;;4932106;29;20048;-80
2023/12/19 03:37:04;;;;;;;2.00;1.30;;;;;;;;;;4948009;29;20402;-80
2023/12/19 03:39:31;;;;;;;3.00;1.45;;;;;;;;;;4931929;29;20055;-79
2023/12/19 03:41:58;;;;;;;1.33;1.20;;;;;;;;;;4948844;29;20046;-80
2023/12/19 03:44:24;;;;;;;3.90;1.70;;;;;;;;;;4947705;29;20047;-80
2023/12/19 03:46:51;;;;;;;3.25;1.50;;;;;;;;;;4932370;29;20039;-80
2023/12/19 03:49:20;;;;;;;3.97;2.22;;;;;;;;;;4931642;29;20043;-79
2023/12/19 03:52:12;;;;;;;5.63;2.85;;;;;;;;;;4932811;29;20039;-80
2023/12/19 03:54:42;;;;;;;4.60;3.00;;;;;;;;;;4949273;29;20405;-80
2023/12/19 03:57:09;;;;;;;;;;;;;;;;;;4950157;29;20043;-80
2023/12/19 03:59:42;;;;;;;5.30;3.10;;;;;;;;;;4917759;29;19921;-80
2023/12/19 04:02:10;;;;;;;5.40;3.00;;;;;;;;;;4948779;29;20058;-81
2023/12/19 04:04:38;;;;;;;6.10;3.15;;;;;;;;;;4939001;29;20058;-81
2023/12/19 04:07:05;;;;;;;4.20;2.25;;;;;;;;;;4934830;29;20050;-79
2023/12/19 04:09:33;;;;;;;4.45;2.72;;;;;;;;;;4950031;29;20058;-80
2023/12/19 04:12:04;;;;;;;2.50;2.03;;;;;;;;;;4941383;29;20042;-79
2023/12/19 04:14:31;;;;;;;2.53;1.92;;;;;;;;;;4931700;29;20028;-79
2023/12/19 04:16:59;;;;;;;3.70;1.98;;;;;;;;;;4952800;29;20011;-79
2023/12/19 04:19:26;;;;;;;4.85;2.28;;;;;;;;;;4957492;29;20034;-79
2023/12/19 04:21:56;;;;;;;3.33;2.03;;;;;;;;;;4930377;29;20043;-80
2023/12/19 04:24:23;;;;;;;4.30;2.20;;;;;;;;;;4930647;29;20059;-79
2023/12/19 04:26:49;;;;;;;7.60;3.95;;;;;;;;;;4945642;29;20051;-79
2023/12/19 04:29:15;;;;;;;12.93;5.97;;;;;;;;;;4914388;29;20040;-79
2023/12/19 04:31:41;;;;;;;13.25;4.93;;;;;;;;;;4930458;29;20054;-80
2023/12/19 04:34:07;;;;;;;7.60;3.78;;;;;;;;;;4926136;29;20043;-79
2023/12/19 04:36:34;;;;;;;6.25;3.40;;;;;;;;;;4945385;29;20039;-80
2023/12/19 04:39:00;;;;;;;10.30;4.38;;;;;;;;;;4945989;29;20048;-79
2023/12/19 04:41:26;;;;;;;9.50;4.75;;;;;;;;;;4927686;29;20044;-80
2023/12/19 04:43:52;;;;;;;7.20;3.85;;;;;;;;;;4947147;29;20048;-80
2023/12/19 04:46:19;;;;;;;7.82;2.92;;;;;;;;;;4928678;29;20048;-79
2023/12/19 04:48:46;;;;;;;4.70;2.90;;;;;;;;;;4945641;29;20031;-79
2023/12/19 04:51:31;;;;;;;5.72;3.38;;;;;;;;;;4945083;29;20042;-79
2023/12/19 04:53:59;;;;;;;6.70;4.05;;;;;;;;;;4926777;29;20375;-80
2023/12/19 04:56:29;;;;;;;9.75;4.03;;;;;;;;;;4927871;29;20047;-79
2023/12/19 04:58:55;;;;;;;9.40;5.00;;;;;;;;;;4947040;29;20041;-80
2023/12/19 05:01:21;;;;;;;9.52;3.67;;;;;;;;;;4945728;29;20412;-80
2023/12/19 05:08:15;;;;;;;10.68;5.10;;;;;;;;;;4936687;29;20051;-81
2023/12/19 05:10:43;;;;;;;5.85;2.40;;;;;;;;;;4943716;29;20039;-80
2023/12/19 05:13:10;;;;;;;3.55;1.80;;;;;;;;;;4943997;29;20042;-81
2023/12/19 05:15:36;;;;;;;3.47;1.45;;;;;;;;;;4925414;29;20044;-80
2023/12/19 05:18:03;;;;;;;5.50;1.65;;;;;;;;;;4941831;29;20044;-79
2023/12/19 05:20:29;;;;;;;3.60;1.65;;;;;;;;;;4940122;29;20046;-80
2023/12/19 05:22:56;;;;;;;3.67;1.77;;;;;;;;;;4938867;29;20153;-79
2023/12/19 05:25:23;;;;;;;3.30;1.55;;;;;;;;;;4940510;29;20059;-80
2023/12/19 05:27:50;;;;;;;3.33;1.73;;;;;;;;;;4938709;29;20055;-80
2023/12/19 05:30:18;;;;;;;3.00;1.92;;;;;;;;;;4938939;29;20055;-79
2023/12/19 05:32:45;;;;;;;7.00;3.27;;;;;;;;;;4922113;29;20406;-80
2023/12/19 05:35:11;;;;;;;3.95;2.22;;;;;;;;;;4907369;29;20300;-81
2023/12/19 05:37:37;;;;;;;2.88;1.90;;;;;;;;;;4923141;29;20052;-81
2023/12/19 05:40:05;;;;;;;2.58;1.70;;;;;;;;;;4941084;29;20043;-80
2023/12/19 05:42:32;;;;;;;2.72;2.03;;;;;;;;;;4923028;29;20047;-80
2023/12/19 05:45:03;;;;;;;3.03;1.95;;;;;;;;;;4922572;29;20036;-82
2023/12/19 05:47:29;;;;;;;3.70;1.92;;;;;;;;;;4927507;29;20498;-81
2023/12/19 05:49:55;;;;;;;4.10;2.15;;;;;;;;;;4941860;29;20039;-80
2023/12/19 05:52:21;;;;;;;2.45;1.42;;;;;;;;;;4938626;29;20506;-80
2023/12/19 05:54:48;;;;;;;2.55;1.55;;;;;;;;;;4937596;29;20040;-80
2023/12/19 05:57:14;;;;;;;2.85;1.40;;;;;;;;;;4924342;29;20040;-79
2023/12/19 05:59:40;;;;;;;3.03;1.52;;;;;;;;;;4944984;29;20027;-80
2023/12/19 06:02:07;;;;;;;3.40;1.60;;;;;;;;;;4908060;29;20032;-81
2023/12/19 06:04:36;;;;;;;7.55;3.60;;;;;;;;;;4934308;29;20046;-81
2023/12/19 06:07:03;;;;;;;10.90;3.58;;;;;;;;;;4950383;29;20043;-80
2023/12/19 06:09:31;;;;;;;6.35;3.10;;;;;;;;;;4914007;29;20048;-80
2023/12/19 06:11:59;;;;;;;4.38;2.28;;;;;;;;;;4919406;29;20039;-80
2023/12/19 06:14:25;;;;;;;2.10;1.45;;;;;;;;;;4935702;29;20044;-80
2023/12/19 06:21:12;;;;;;;;;;;;;;;;;;4931928;29;20252;-79
2023/12/19 06:23:39;;;;;;;2.92;1.10;;;;;;;;;;4934069;29;19926;-79
2023/12/19 06:26:06;;;;;;;3.58;1.35;;;;;;;;;;4933429;29;20042;-79
2023/12/19 06:28:33;;;;;;;2.70;1.55;;;;;;;;;;4933101;29;20044;-79
2023/12/19 06:30:59;;;;;;;4.70;1.42;;;;;;;;;;4932857;29;20046;-79
2023/12/19 06:33:25;;;;;;;2.33;1.40;;;;;;;;;;4931789;29;20044;-79
2023/12/19 06:35:51;;;;;;;2.05;1.45;;;;;;;;;;4922276;29;20054;-77
2023/12/19 06:38:18;;;;;;;2.58;1.48;;;;;;;;;;4917295;29;20419;-79
2023/12/19 06:40:45;;;;;;;2.58;1.10;;;;;;;;;;4901979;29;20040;-80
2023/12/19 06:43:12;;;;;;;2.75;1.23;;;;;;;;;;4931911;29;20032;-79
2023/12/19 06:45:38;;;;;;;1.95;1.20;;;;;;;;;;4931364;29;20044;-79
2023/12/19 06:48:05;;;;;;;2.38;1.15;;;;;;;;;;4936264;29;20040;-81
2023/12/19 06:50:32;;;;;;;2.33;1.50;;;;;;;;;;4903384;29;20059;-79
2023/12/19 06:52:58;;;;;;;2.67;1.50;;;;;;;;;;4918115;29;20039;-79
2023/12/19 06:55:25;;;;;;;2.80;1.83;;;;;;;;;;4918051;29;20047;-79
2023/12/19 06:57:52;;;;;;;2.60;1.48;;;;;;;;;;4916943;29;20055;-79
2023/12/19 07:00:19;;;;;;;3.95;2.30;;;;;;;;;;4933803;29;20031;-79
2023/12/19 07:02:46;;;;;;;3.85;2.10;;;;;;;;;;4935537;29;20062;-79
2023/12/19 07:05:12;;;;;;;3.60;1.80;;;;;;;;;;4934228;29;20051;-79
2023/12/19 07:07:39;;;;;;;3.05;1.48;;;;;;;;;;4903397;29;20088;-79
2023/12/19 07:10:07;;;;;;;3.22;1.80;;;;;;;;;;4941924;29;20128;-78
2023/12/19 07:12:33;;;;;;;3.65;2.08;;;;;;;;;;4934084;29;20054;-78
2023/12/19 07:15:04;;;;;;;5.38;2.13;;;;;;;;;;4933840;29;20395;-79
2023/12/19 07:17:33;;;;;;;2.90;2.05;;;;;;;;;;4917579;29;20131;-79
2023/12/19 07:19:59;;;;;;;5.35;2.03;;;;;;;;;;4918760;29;20039;-79
2023/12/19 07:22:26;;;;;;;4.90;2.90;;;;;;;;;;4922552;29;21551;-80
2023/12/19 07:24:52;;;;;;;3.10;2.20;;;;;;;;;;4933435;29;20044;-78
2023/12/19 07:27:20;;;;;;;6.75;3.83;;;;;;;;;;4935610;29;20058;-79
2023/12/19 07:29:47;;;;;;;24.67;12.23;;;;;;;;;;4936992;29;20071;-78
2023/12/19 07:32:13;;;;;;;44.55;18.63;;;;;;;;;;4947419;28;20140;-80
2023/12/19 07:34:40;;;;;;;27.35;14.30;;;;;;;;;;4916851;29;20040;-79
2023/12/19 07:37:07;;;;;;;22.67;10.45;;;;;;;;;;4919095;29;20051;-79
2023/12/19 07:39:34;;;;;;;16.98;8.32;;;;;;;;;;4936902;29;20074;-79
2023/12/19 07:42:01;;;;;;;13.30;7.30;;;;;;;;;;4935146;29;20039;-79
2023/12/19 07:44:28;;;;;;;17.08;7.50;;;;;;;;;;4936441;29;20426;-79
2023/12/19 07:46:55;;;;;;;13.55;8.35;;;;;;;;;;4905021;29;20047;-79
2023/12/19 07:49:23;;;;;;;12.45;7.32;;;;;;;;;;4936190;29;20039;-79
2023/12/19 07:51:49;;;;;;;16.45;8.05;;;;;;;;;;4934549;29;20048;-79
2023/12/19 07:54:17;;;;;;;15.45;7.40;;;;;;;;;;4935501;29;20058;-79
2023/12/19 07:56:44;;;;;;;17.30;9.38;;;;;;;;;;4918481;29;20502;-79
2023/12/19 07:59:11;;;;;;;11.68;6.95;;;;;;;;;;4934887;29;21569;-80
2023/12/19 08:01:37;;;;;;;11.95;6.07;;;;;;;;;;4936686;29;20051;-79
2023/12/19 08:04:04;;;;;;;11.15;6.05;;;;;;;;;;4934772;29;20039;-79
2023/12/19 08:06:31;;;;;;;18.30;8.57;;;;;;;;;;4934568;29;20059;-80
2023/12/19 08:08:57;;;;;;;11.77;5.85;;;;;;;;;;4917754;29;20043;-80
2023/12/19 08:11:25;;;;;;;10.00;5.55;;;;;;;;;;4934659;29;20066;-80
2023/12/19 08:13:52;;;;;;;13.43;5.28;;;;;;;;;;4903976;29;20040;-82
2023/12/19 08:16:21;;;;;;;8.70;4.90;;;;;;;;;;4935257;29;20044;-81
2023/12/19 08:18:50;;;;;;;6.90;4.30;;;;;;;;;;4937373;29;20051;-79
2023/12/19 08:21:17;;;;;;;8.93;4.95;;;;;;;;;;4920691;29;20040;-79
2023/12/19 08:23:45;;;;;;;19.50;10.35;;;;;;;;;;4904764;29;20498;-80
2023/12/19 08:26:11;;;;;;;15.00;8.48;;;;;;;;;;4921318;29;20454;-79
2023/12/19 08:28:37;;;;;;;14.82;8.13;;;;;;;;;;4919783;29;20035;-79
2023/12/19 08:31:04;;;;;;;21.75;10.85;;;;;;;;;;4920373;29;20039;-78
2023/12/19 08:33:41;;;;;;;39.20;14.50;;;;;;;;;;4934040;29;20051;-79
2023/12/19 08:36:09;;;;;;;27.05;12.85;;;;;;;;;;4934700;29;20044;-80
2023/12/19 08:38:36;;;;;;;29.20;13.68;;;;;;;;;;4922218;29;20042;-79
2023/12/19 08:41:02;;;;;;;22.85;13.27;;;;;;;;;;4922793;29;20048;-78
2023/12/19 08:43:29;;;;;;;26.55;13.02;;;;;;;;;;4935138;29;20051;-80
2023/12/19 08:45:55;;;;;;;25.75;13.25;;;;;;;;;;4907711;29;20047;-79
2023/12/19 08:48:23;;;;;;;24.92;13.55;;;;;;;;;;4935354;29;20040;-80
2023/12/19 08:50:49;;;;;;;32.13;16.88;;;;;;;;;;4918934;29;20040;-80
2023/12/19 08:53:15;;;;;;;31.35;17.17;;;;;;;;;;4904066;29;20380;-79
2023/12/19 08:55:44;;;;;;;30.13;14.98;;;;;;;;;;4919710;29;20047;-80
2023/12/19 08:58:10;;;;;;;29.52;14.77;;;;;;;;;;4917313;29;20039;-80
2023/12/19 09:00:37;;;;;;;32.03;15.88;;;;;;;;;;4932838;29;20046;-81
2023/12/19 09:03:05;;;;;;;28.30;13.27;;;;;;;;;;4903922;29;20051;-82
2023/12/19 09:05:32;;;;;;;23.33;12.20;;;;;;;;;;4934722;29;20035;-80
2023/12/19 09:07:58;;;;;;;16.08;9.27;;;;;;;;;;4920612;29;20047;-80
2023/12/19 09:10:24;;;;;;;13.10;7.95;;;;;;;;;;4921207;29;20047;-83
2023/12/19 09:12:50;;;;;;;13.85;8.27;;;;;;;;;;4942857;29;20112;-78
2023/12/19 09:15:17;;;;;;;14.27;8.05;;;;;;;;;;4928305;29;20035;-78
2023/12/19 09:17:44;;;;;;;11.05;6.97;;;;;;;;;;4945058;29;20056;-78
2023/12/19 09:20:10;;;;;;;11.80;6.47;;;;;;;;;;4916599;29;20050;-79
2023/12/19 09:22:39;;;;;;;12.27;7.63;;;;;;;;;;4933179;29;20040;-79
2023/12/19 09:25:13;;;;;;;12.32;6.65;;;;;;;;;;4903617;29;20039;-78
2023/12/19 09:27:43;;;;;;;13.40;7.75;;;;;;;;;;4921457;29;20043;-80
2023/12/19 09:30:11;;;;;;;10.48;6.80;;;;;;;;;;4933732;29;20035;-79
2023/12/19 09:32:40;;;;;;;14.20;8.30;;;;;;;;;;4932317;29;20036;-77
2023/12/19 09:35:08;;;;;;;21.17;10.63;;;;;;;;;;4933763;29;20058;-79
2023/12/19 09:37:37;;;;;;;16.58;8.20;;;;;;;;;;4935063;29;20036;-80
2023/12/19 09:40:12;;;;;;;12.43;7.78;;;;;;;;;;4914750;29;20502;-79
2023/12/19 09:42:39;;;;;;;20.65;10.43;;;;;;;;;;4933721;29;20036;-79
2023/12/19 09:45:07;;;;;;;11.82;7.03;;;;;;;;;;4917691;29;20036;-79
2023/12/19 09:47:38;;;;;;;11.95;7.70;;;;;;;;;;4933670;29;20090;-80
2023/12/19 09:50:12;;;;;;;12.93;8.25;;;;;;;;;;4900492;29;21383;-79
2023/12/19 09:52:41;;;;;;;13.77;7.75;;;;;;;;;;4931894;29;20079;-79
2023/12/19 09:55:10;;;;;;;12.20;6.93;;;;;;;;;;4933593;29;20046;-79
2023/12/19 09:57:38;;;;;;;12.82;7.07;;;;;;;;;;4913108;29;20043;-80
2023/12/19 10:00:08;;;;;;;11.82;6.95;;;;;;;;;;4933652;29;20042;-80
2023/12/19 10:02:36;;;;;;;13.75;6.75;;;;;;;;;;4914701;29;20031;-79
2023/12/19 10:05:04;;;;;;;13.02;7.43;;;;;;;;;;4919057;29;20040;-79
2023/12/19 10:07:31;;;;;;;12.55;6.40;;;;;;;;;;4904134;29;20383;-79
2023/12/19 10:09:57;;;;;;;11.55;6.90;;;;;;;;;;4934009;29;20034;-79
2023/12/19 10:12:29;;;;;;;13.95;7.60;;;;;;;;;;4932483;29;20410;-79
2023/12/19 10:15:13;;;;;;;13.45;7.22;;;;;;;;;;4934183;29;20043;-79
2023/12/19 10:17:39;;;;;;;12.95;6.53;;;;;;;;;;4929299;29;20419;-78
2023/12/19 10:20:10;;;;;;;9.48;6.68;;;;;;;;;;4933528;29;20682;-79
2023/12/19 10:22:38;;;;;;;10.32;6.82;;;;;;;;;;4932026;29;20043;-79
2023/12/19 10:25:04;;;;;;;15.32;8.90;;;;;;;;;;4901938;29;20048;-80
2023/12/19 10:27:31;;;;;;;18.02;9.55;;;;;;;;;;4931065;29;20396;-80
2023/12/19 10:30:18;;;;;;;11.80;8.07;;;;;;;;;;4930809;29;20043;-80
2023/12/19 10:32:46;;;;;;;13.05;7.03;;;;;;;;;;4930113;29;20051;-80
2023/12/19 10:35:14;;;;;;;11.20;6.95;;;;;;;;;;4935221;29;20036;-79
2023/12/19 10:37:40;;;;;;;9.80;6.45;;;;;;;;;;4915073;29;20047;-79
2023/12/19 10:40:11;;;;;;;14.75;7.63;;;;;;;;;;4932744;29;20039;-80
2023/12/19 10:42:38;;;;;;;13.35;8.15;;;;;;;;;;4915317;29;20040;-77
2023/12/19 10:45:05;;;;;;;13.85;9.00;;;;;;;;;;4917551;29;20039;-79
2023/12/19 10:47:32;;;;;;;14.48;8.80;;;;;;;;;;4931878;29;20047;-77
2023/12/19 10:49:58;;;;;;;15.80;9.38;;;;;;;;;;4897798;29;20051;-77
2023/12/19 10:52:28;;;;;;;14.13;8.60;;;;;;;;;;4932895;29;20051;-80
2023/12/19 10:55:04;;;;;;;15.23;9.27;;;;;;;;;;4905013;29;20067;-78
2023/12/19 10:57:34;;;;;;;13.55;9.10;;;;;;;;;;4920546;29;20043;-78
2023/12/19 11:00:17;;;;;;;17.17;10.60;;;;;;;;;;4919969;29;20517;-79
2023/12/19 11:02:45;;;;;;;14.70;9.15;;;;;;;;;;4937356;29;20028;-77
2023/12/19 11:05:28;;;;;;;30.15;17.98;;;;;;;;;;4935379;29;20034;-77
2023/12/19 11:08:40;;;;;;;146.38;60.58;;;;;;;;;;4934725;29;20035;-82
2023/12/19 11:11:29;;;;;;;32.45;15.88;;;;;;;;;;4925088;29;20410;-79
2023/12/19 11:13:56;;;;;;;86.35;37.35;;;;;;;;;;4941233;29;20502;-79
2023/12/19 11:16:41;;;;;;;145.02;51.55;;;;;;;;;;4921867;29;20114;-81
2023/12/19 11:19:22;;;;;;;117.57;47.05;;;;;;;;;;4922092;29;20047;-80
2023/12/19 11:22:30;;;;;;;78.90;33.13;;;;;;;;;;4937520;29;20038;-80
2023/12/19 11:25:27;;;;;;;20.52;11.43;;;;;;;;;;4933582;29;20032;-81
2023/12/19 11:28:03;;;;;;;34.67;17.35;;;;;;;;;;4915302;29;20047;-81
2023/12/19 11:30:35;;;;;;;28.83;14.65;;;;;;;;;;4901293;29;20058;-80
2023/12/19 11:33:03;;;;;;;32.53;18.05;;;;;;;;;;4924811;29;20039;-79
2023/12/19 11:35:31;;;;;;;25.33;12.15;;;;;;;;;;4907444;29;20051;-81
2023/12/19 11:38:17;;;;;;;26.77;15.88;;;;;;;;;;4940687;29;20043;-81
2023/12/19 11:40:44;;;;;;;124.93;60.95;;;;;;;;;;4923850;29;20046;-81
2023/12/19 11:43:38;;;;;;;66.63;36.92;;;;;;;;;;4924759;29;20039;-79
2023/12/19 11:46:07;;;;;;;44.90;22.63;;;;;;;;;;4932977;29;20043;-78
2023/12/19 11:48:34;;;;;;;363.23;100.93;;;;;;;;;;4905430;29;20044;-77
2023/12/19 11:51:00;;;;;;;63.53;26.17;;;;;;;;;;4904944;29;20522;-78
2023/12/19 11:53:27;;;;;;;206.48;72.15;;;;;;;;;;4925745;29;20044;-79
2023/12/19 11:56:05;;;;;;;180.90;58.85;;;;;;;;;;4906586;29;20138;-78
2023/12/19 11:58:32;;;;;;;92.77;36.50;;;;;;;;;;4921066;29;20039;-77
2023/12/19 12:01:01;;;;;;;66.82;31.50;;;;;;;;;;4935300;29;20066;-77
2023/12/19 12:03:28;;;;;;;66.00;31.98;;;;;;;;;;4903721;29;20040;-78
2023/12/19 12:05:55;;;;;;;30.48;16.13;;;;;;;;;;4931284;29;20031;-81
2023/12/19 12:08:23;;;;;;;36.50;21.85;;;;;;;;;;4920197;29;20055;-78
2023/12/19 12:10:58;;;;;;;39.95;21.63;;;;;;;;;;4920235;29;20039;-79
2023/12/19 12:13:32;;;;;;;132.27;55.40;;;;;;;;;;4935622;29;20044;-80
2023/12/19 12:16:00;;;;;;;194.30;75.80;;;;;;;;;;4918405;29;20036;-78
2023/12/19 12:18:30;;;;;;;82.80;38.80;;;;;;;;;;4935865;29;20044;-77
2023/12/19 12:21:10;;;;;;;21.15;12.85;;;;;;;;;;4918030;29;20036;-79
2023/12/19 12:23:37;;;;;;;23.48;13.65;;;;;;;;;;4916084;29;20038;-79
2023/12/19 12:26:05;;;;;;;44.95;22.77;;;;;;;;;;4934329;29;20058;-79
2023/12/19 12:28:33;;;;;;;37.75;19.70;;;;;;;;;;4901406;29;20043;-79
2023/12/19 12:31:03;;;;;;;24.08;15.20;;;;;;;;;;4935041;29;20383;-79
2023/12/19 12:33:31;;;;;;;61.83;28.77;;;;;;;;;;4918194;29;20050;-79
2023/12/19 12:35:57;;;;;;;147.55;53.38;;;;;;;;;;4917531;29;20048;-80
2023/12/19 12:38:25;;;;;;;25.65;15.32;;;;;;;;;;4937687;29;20084;-82
2023/12/19 12:41:00;;;;;;;22.70;14.60;;;;;;;;;;4937214;29;20525;-80
2023/12/19 12:43:36;;;;;;;24.45;14.00;;;;;;;;;;4919205;29;20044;-80
2023/12/19 12:46:12;;;;;;;22.13;14.05;;;;;;;;;;4919406;29;20059;-81
2023/12/19 12:48:46;;;;;;;21.42;13.48;;;;;;;;;;4931287;29;20039;-80
2023/12/19 12:51:16;;;;;;;21.42;12.85;;;;;;;;;;4919559;29;20042;-82
2023/12/19 12:53:44;;;;;;;24.55;13.88;;;;;;;;;;4924015;29;20036;-81
2023/12/19 12:56:16;;;;;;;34.58;18.77;;;;;;;;;;4903666;29;20044;-82
2023/12/19 12:58:43;;;;;;;30.13;16.40;;;;;;;;;;4922295;29;20043;-81
2023/12/19 13:01:09;;;;;;;33.50;17.92;;;;;;;;;;4935435;28;20042;-82
2023/12/19 13:03:36;;;;;;;223.13;65.13;;;;;;;;;;4926669;29;20034;-84
2023/12/19 13:06:04;;;;;;;119.10;37.15;;;;;;;;;;4944386;29;20053;-82
2023/12/19 13:08:32;;;;;;;82.55;27.35;;;;;;;;;;4943512;29;20043;-81
2023/12/19 13:11:00;;;;;;;125.47;37.97;;;;;;;;;;4935047;29;20383;-79
2023/12/19 13:13:29;;;;;;;111.85;37.53;;;;;;;;;;4930389;29;20063;-80
2023/12/19 13:15:56;;;;;;;29.25;16.98;;;;;;;;;;4902224;29;20040;-80
2023/12/19 13:18:22;;;;;;;25.80;15.55;;;;;;;;;;4917259;29;20425;-81
2023/12/19 13:20:50;;;;;;;30.35;16.65;;;;;;;;;;4932882;29;20541;-79
2023/12/19 13:23:16;;;;;;;30.80;15.32;;;;;;;;;;4933804;29;20035;-79
2023/12/19 13:25:43;;;;;;;28.00;15.93;;;;;;;;;;4933780;29;20036;-81
2023/12/19 13:28:10;;;;;;;32.08;17.70;;;;;;;;;;4915411;29;20392;-80
2023/12/19 13:30:38;;;;;;;35.38;17.70;;;;;;;;;;4929938;29;20040;-80
2023/12/19 13:33:04;;;;;;;40.30;20.40;;;;;;;;;;4914573;29;20133;-81
2023/12/19 13:35:34;;;;;;;34.60;19.17;;;;;;;;;;4917839;29;20046;-80
2023/12/19 13:38:02;;;;;;;35.13;19.85;;;;;;;;;;4935344;29;20035;-80
2023/12/19 13:40:28;;;;;;;30.60;16.55;;;;;;;;;;4936262;29;20044;-80
2023/12/19 13:42:56;;;;;;;27.13;16.23;;;;;;;;;;4919780;29;20039;-80
2023/12/19 13:45:26;;;;;;;26.92;15.27;;;;;;;;;;4917668;29;20075;-79
2023/12/19 13:47:54;;;;;;;28.17;16.40;;;;;;;;;;4932550;29;20054;-78
2023/12/19 13:50:20;;;;;;;28.95;16.75;;;;;;;;;;4931624;29;20063;-79
2023/12/19 13:52:49;;;;;;;26.50;16.38;;;;;;;;;;4919607;29;20055;-79
2023/12/19 13:55:16;;;;;;;27.30;15.43;;;;;;;;;;4919231;29;20052;-78
2023/12/19 13:57:42;;;;;;;27.85;15.30;;;;;;;;;;4936604;29;20288;-79
2023/12/19 14:00:09;;;;;;;26.63;15.73;;;;;;;;;;4891089;29;20047;-77
2023/12/19 14:02:42;;;;;;;26.23;16.00;;;;;;;;;;4918228;29;20040;-79
2023/12/19 14:05:08;;;;;;;29.95;16.05;;;;;;;;;;4935966;29;20525;-79
2023/12/19 14:07:36;;;;;;;30.98;17.20;;;;;;;;;;4903642;29;20047;-81
2023/12/19 14:10:04;;;;;;;30.65;17.27;;;;;;;;;;4916016;29;20051;-79
2023/12/19 14:12:32;;;;;;;27.17;16.95;;;;;;;;;;4899368;29;20537;-80
2023/12/19 14:14:59;;;;;;;29.75;16.90;;;;;;;;;;4931468;29;20050;-79
2023/12/19 14:17:26;;;;;;;29.98;16.88;;;;;;;;;;4934720;29;20051;-78
2023/12/19 14:19:52;;;;;;;31.85;16.42;;;;;;;;;;4920065;29;20039;-80
2023/12/19 14:22:19;;;;;;;26.13;15.80;;;;;;;;;;4932038;29;20027;-79
2023/12/19 14:24:45;;;;;;;32.20;18.50;;;;;;;;;;4934028;29;20494;-78
2023/12/19 14:27:13;;;;;;;30.95;17.17;;;;;;;;;;4934346;29;20039;-80
2023/12/19 14:29:39;;;;;;;29.27;16.15;;;;;;;;;;4905966;29;20047;-80
2023/12/19 14:32:06;;;;;;;26.52;14.75;;;;;;;;;;4905659;29;20044;-79
2023/12/19 14:34:32;;;;;;;26.92;15.57;;;;;;;;;;4922202;29;20040;-79
2023/12/19 14:36:58;;;;;;;25.55;15.07;;;;;;;;;;4933141;29;20402;-79
2023/12/19 14:39:25;;;;;;;29.67;16.42;;;;;;;;;;4939015;29;20039;-79
2023/12/19 14:41:51;;;;;;;31.02;16.08;;;;;;;;;;4906537;29;20046;-79
2023/12/19 14:44:19;;;;;;;29.42;17.05;;;;;;;;;;4931765;29;20039;-80
2023/12/19 14:46:45;;;;;;;32.00;17.17;;;;;;;;;;4936701;29;20402;-80
2023/12/19 14:49:12;;;;;;;30.13;17.80;;;;;;;;;;4936236;29;20039;-79